createdAt,value
2017-11-14T00:02:08.607Z,19.00
2017-11-14T00:04:35.908Z,18.60
2017-11-14T00:07:03.195Z,22.50
2017-11-14T00:09:30.467Z,16.10
2017-11-14T00:11:57.806Z,18.20
2017-11-14T00:14:25.067Z,18.30
2017-11-14T00:16:52.342Z,14.23
2017-11-14T00:19:19.654Z,18.40
2017-11-14T00:21:46.985Z,19.60
2017-11-14T00:24:14.256Z,17.47
2017-11-14T00:26:41.537Z,17.80
2017-11-14T00:29:08.834Z,21.60
2017-11-14T00:31:36.127Z,24.90
2017-11-14T00:34:03.497Z,21.47
2017-11-14T00:36:30.768Z,20.63
2017-11-14T00:38:58.067Z,20.13
2017-11-14T00:41:25.445Z,20.03
2017-11-14T00:43:52.748Z,22.67
2017-11-14T00:46:20.021Z,25.43
2017-11-14T00:48:47.292Z,22.97
2017-11-14T00:51:14.588Z,21.97
2017-11-14T00:53:41.856Z,19.77
2017-11-14T00:56:09.129Z,21.37
2017-11-14T00:58:36.428Z,20.73
2017-11-14T01:01:03.735Z,24.63
2017-11-14T01:03:31.238Z,24.80
2017-11-14T01:06:04.621Z,24.40
2017-11-14T01:08:33.380Z,23.57
2017-11-14T01:11:00.664Z,22.07
2017-11-14T01:13:27.932Z,23.23
2017-11-14T01:15:55.228Z,22.10
2017-11-14T01:18:22.502Z,21.50
2017-11-14T01:20:49.786Z,21.37
2017-11-14T01:23:17.082Z,22.50
2017-11-14T01:25:44.366Z,22.90
2017-11-14T01:28:11.636Z,27.23
2017-11-14T01:30:38.940Z,22.97
2017-11-14T01:33:06.215Z,22.00
2017-11-14T01:35:33.497Z,20.40
2017-11-14T01:38:00.792Z,20.47
2017-11-14T01:40:28.063Z,20.17
2017-11-14T01:42:55.340Z,22.10
2017-11-14T01:45:22.641Z,20.33
2017-11-14T01:47:49.907Z,20.33
2017-11-14T01:50:17.188Z,21.20
2017-11-14T01:52:44.492Z,21.80
2017-11-14T01:55:11.788Z,29.80
2017-11-14T01:57:39.064Z,23.43
2017-11-14T02:00:06.337Z,18.77
2017-11-14T02:02:33.639Z,32.20
2017-11-14T02:05:00.911Z,19.30
2017-11-14T02:07:28.188Z,19.90
2017-11-14T02:09:55.489Z,20.83
2017-11-14T02:12:22.766Z,18.23
2017-11-14T02:14:50.072Z,28.83
2017-11-14T02:17:17.345Z,20.80
2017-11-14T02:19:44.615Z,19.20
2017-11-14T02:22:11.922Z,22.30
2017-11-14T02:24:39.196Z,24.20
2017-11-14T02:27:10.061Z,20.27
2017-11-14T02:29:37.351Z,21.33
2017-11-14T02:32:04.626Z,19.90
2017-11-14T02:34:31.915Z,19.10
2017-11-14T02:36:59.220Z,26.73
2017-11-14T02:39:26.517Z,17.53
2017-11-14T02:41:53.792Z,19.73
2017-11-14T02:44:21.064Z,18.53
2017-11-14T02:46:48.376Z,18.23
2017-11-14T02:49:15.647Z,17.40
2017-11-14T02:51:42.920Z,17.60
2017-11-14T02:54:10.225Z,17.67
2017-11-14T02:56:37.501Z,17.10
2017-11-14T02:59:04.793Z,18.10
2017-11-14T03:01:32.069Z,16.90
2017-11-14T03:03:59.360Z,17.60
2017-11-14T03:06:26.632Z,18.17
2017-11-14T03:08:53.903Z,19.33
2017-11-14T03:11:21.211Z,16.10
2017-11-14T03:13:48.519Z,16.13
2017-11-14T03:16:15.792Z,15.50
2017-11-14T03:18:43.068Z,15.27
2017-11-14T03:21:10.368Z,14.87
2017-11-14T03:23:37.644Z,19.70
2017-11-14T03:26:04.939Z,14.27
2017-11-14T03:28:32.213Z,16.00
2017-11-14T03:30:59.519Z,18.20
2017-11-14T03:33:26.788Z,15.57
2017-11-14T03:35:54.106Z,19.10
2017-11-14T03:38:21.381Z,13.70
2017-11-14T03:40:48.652Z,13.97
2017-11-14T03:43:15.967Z,15.10
2017-11-14T03:45:43.245Z,15.30
2017-11-14T03:48:10.516Z,21.33
2017-11-14T03:50:37.830Z,17.00
2017-11-14T03:53:05.112Z,15.90
2017-11-14T03:55:32.400Z,16.10
2017-11-14T03:57:59.697Z,13.07
2017-11-14T04:00:26.968Z,13.20
2017-11-14T04:02:54.268Z,14.13
2017-11-14T04:05:21.569Z,14.73
2017-11-14T04:07:48.835Z,15.50
2017-11-14T04:10:16.103Z,16.07
2017-11-14T04:12:43.411Z,17.80
2017-11-14T04:15:10.680Z,15.83
2017-11-14T04:17:37.948Z,15.23
2017-11-14T04:20:05.256Z,14.60
2017-11-14T04:22:32.568Z,14.43
2017-11-14T04:24:59.839Z,13.57
2017-11-14T04:27:27.121Z,16.07
2017-11-14T04:29:54.425Z,16.10
2017-11-14T04:32:21.784Z,14.50
2017-11-14T04:34:49.127Z,16.20
2017-11-14T04:37:16.406Z,17.63
2017-11-14T04:39:43.708Z,15.43
2017-11-14T04:42:10.982Z,16.20
2017-11-14T04:44:38.278Z,14.93
2017-11-14T04:47:05.555Z,15.03
2017-11-14T04:49:32.847Z,12.33
2017-11-14T04:52:00.121Z,18.53
2017-11-14T04:54:27.401Z,17.30
2017-11-14T04:56:54.699Z,15.87
2017-11-14T04:59:21.968Z,19.17
2017-11-14T05:01:49.244Z,13.07
2017-11-14T05:04:16.550Z,12.80
2017-11-14T05:06:43.807Z,14.83
2017-11-14T05:09:11.080Z,15.87
2017-11-14T05:11:38.375Z,16.37
2017-11-14T05:14:05.654Z,17.13
2017-11-14T05:16:32.932Z,14.40
2017-11-14T05:19:00.226Z,16.63
2017-11-14T05:21:27.498Z,20.43
2017-11-14T05:23:54.816Z,23.53
2017-11-14T05:26:26.835Z,21.27
2017-11-14T05:28:54.136Z,20.60
2017-11-14T05:31:21.431Z,22.70
2017-11-14T05:33:48.717Z,18.67
2017-11-14T05:36:16.024Z,20.60
2017-11-14T05:38:43.293Z,18.50
2017-11-14T05:41:10.560Z,19.67
2017-11-14T05:43:37.860Z,20.00
2017-11-14T05:46:05.167Z,20.37
2017-11-14T05:48:32.443Z,20.77
2017-11-14T05:50:59.712Z,21.40
2017-11-14T05:53:27.020Z,19.63
2017-11-14T05:55:54.293Z,20.00
2017-11-14T05:58:21.564Z,19.80
2017-11-14T06:00:48.859Z,20.30
2017-11-14T06:03:16.133Z,24.67
2017-11-14T06:05:43.445Z,19.33
2017-11-14T06:08:10.712Z,21.40
2017-11-14T06:10:37.985Z,19.40
2017-11-14T06:13:05.283Z,22.17
2017-11-14T06:15:32.556Z,21.67
2017-11-14T06:17:59.853Z,21.13
2017-11-14T06:20:27.126Z,21.43
2017-11-14T06:22:54.444Z,22.60
2017-11-14T06:25:21.712Z,22.60
2017-11-14T06:27:48.979Z,22.00
2017-11-14T06:30:16.280Z,21.53
2017-11-14T06:32:43.584Z,24.10
2017-11-14T06:35:10.929Z,22.50
2017-11-14T06:37:44.652Z,24.47
2017-11-14T06:40:16.680Z,22.87
2017-11-14T06:42:43.966Z,23.60
2017-11-14T06:45:11.231Z,25.90
2017-11-14T06:47:38.499Z,24.03
2017-11-14T06:50:05.795Z,23.97
2017-11-14T06:52:33.063Z,23.67
2017-11-14T06:55:00.364Z,23.53
2017-11-14T06:57:27.641Z,23.07
2017-11-14T06:59:54.933Z,19.30
2017-11-14T07:02:22.374Z,22.20
2017-11-14T07:04:49.637Z,23.33
2017-11-14T07:07:16.933Z,21.30
2017-11-14T07:09:44.199Z,21.27
2017-11-14T07:12:11.497Z,22.20
2017-11-14T07:14:39.807Z,20.80
2017-11-14T07:17:07.105Z,21.20
2017-11-14T07:19:35.364Z,23.63
2017-11-14T07:22:02.666Z,24.00
2017-11-14T07:24:30.573Z,22.17
2017-11-14T07:26:57.963Z,22.50
2017-11-14T07:29:25.266Z,20.53
2017-11-14T07:31:52.572Z,21.90
2017-11-14T07:34:19.835Z,22.97
2017-11-14T07:36:47.108Z,21.97
2017-11-14T07:39:14.417Z,20.40
2017-11-14T07:41:41.690Z,19.27
2017-11-14T07:44:08.969Z,20.13
2017-11-14T07:46:36.268Z,18.90
2017-11-14T07:49:03.556Z,19.90
2017-11-14T07:51:30.829Z,17.73
2017-11-14T07:53:59.449Z,19.90
2017-11-14T07:56:27.214Z,22.10
2017-11-14T07:58:55.532Z,20.33
2017-11-14T08:01:25.649Z,18.07
2017-11-14T08:03:53.044Z,18.63
2017-11-14T08:06:20.344Z,18.53
2017-11-14T08:08:47.649Z,21.33
2017-11-14T08:11:20.384Z,20.93
2017-11-14T08:13:49.810Z,22.13
2017-11-14T08:16:17.095Z,21.00
2017-11-14T08:18:44.394Z,23.57
2017-11-14T08:21:11.671Z,22.27
2017-11-14T08:23:38.973Z,22.30
2017-11-14T08:26:06.246Z,20.17
2017-11-14T08:28:34.207Z,19.80
2017-11-14T08:31:01.484Z,20.83
2017-11-14T08:33:32.328Z,19.77
2017-11-14T08:35:59.647Z,21.07
2017-11-14T08:38:27.659Z,18.80
2017-11-14T08:41:00.631Z,21.43
2017-11-14T08:43:28.373Z,19.40
2017-11-14T08:45:55.640Z,21.63
2017-11-14T08:48:22.940Z,20.13
2017-11-14T08:50:50.209Z,21.87
2017-11-14T08:53:17.520Z,19.03
2017-11-14T08:55:44.792Z,18.20
2017-11-14T08:58:12.064Z,19.07
2017-11-14T09:00:39.369Z,17.50
2017-11-14T09:03:06.637Z,15.57
2017-11-14T09:05:33.947Z,12.43
2017-11-14T09:08:01.216Z,12.07
2017-11-14T09:10:28.493Z,11.43
2017-11-14T09:12:55.787Z,11.57
2017-11-14T09:15:23.068Z,10.70
2017-11-14T09:17:50.375Z,9.60
2017-11-14T09:20:17.648Z,10.20
2017-11-14T09:22:44.916Z,9.07
2017-11-14T09:25:12.212Z,9.60
2017-11-14T09:27:39.478Z,8.67
2017-11-14T09:30:06.749Z,9.30
2017-11-14T09:32:34.679Z,10.47
2017-11-14T09:35:01.951Z,12.40
2017-11-14T09:37:29.249Z,11.80
2017-11-14T09:39:56.520Z,12.00
2017-11-14T09:42:23.851Z,10.23
2017-11-14T09:44:51.116Z,10.30
2017-11-14T09:47:18.381Z,11.83
2017-11-14T09:49:45.685Z,10.53
2017-11-14T09:52:12.985Z,12.77
2017-11-14T09:54:44.274Z,13.90
2017-11-14T10:00:24.276Z,13.40
2017-11-14T10:02:51.568Z,8.53
2017-11-14T10:05:18.831Z,7.37
2017-11-14T10:07:46.158Z,10.13
2017-11-14T10:10:13.404Z,12.10
2017-11-14T10:12:40.700Z,15.40
2017-11-14T10:15:08.005Z,14.77
2017-11-14T10:17:35.271Z,16.67
2017-11-14T10:20:02.573Z,15.83
2017-11-14T10:22:29.880Z,14.17
2017-11-14T10:27:55.346Z,10.80
2017-11-14T10:33:35.834Z,9.70
2017-11-14T10:36:03.084Z,9.50
2017-11-14T10:38:30.379Z,8.50
2017-11-14T10:40:57.680Z,6.10
2017-11-14T10:43:24.949Z,5.40
2017-11-14T10:45:52.212Z,5.80
2017-11-14T10:48:19.511Z,6.30
2017-11-14T10:50:46.781Z,6.17
2017-11-14T10:53:14.051Z,5.30
2017-11-14T10:55:41.352Z,4.27
2017-11-14T10:58:08.611Z,3.30
2017-11-14T11:00:38.686Z,3.20
2017-11-14T11:06:19.696Z,3.23
2017-11-14T11:08:47.976Z,3.43
2017-11-14T11:11:16.584Z,3.37
2017-11-14T11:13:44.482Z,3.37
2017-11-14T11:16:13.884Z,3.30
2017-11-14T11:18:58.856Z,3.77
2017-11-14T11:27:32.249Z,4.40
2017-11-14T11:33:32.724Z,3.70
2017-11-14T11:36:05.018Z,3.40
2017-11-14T11:38:32.309Z,3.67
2017-11-14T11:41:00.785Z,4.27
2017-11-14T11:43:28.050Z,3.40
2017-11-14T11:45:55.347Z,3.13
2017-11-14T11:48:22.600Z,3.50
2017-11-14T11:50:49.904Z,2.73
2017-11-14T11:53:17.164Z,2.40
2017-11-14T11:55:44.430Z,3.07
2017-11-14T11:58:11.725Z,3.57
2017-11-14T12:00:38.987Z,2.40
2017-11-14T12:03:06.282Z,3.07
2017-11-14T12:05:33.543Z,3.63
2017-11-14T12:08:00.810Z,3.50
2017-11-14T12:10:28.110Z,3.40
2017-11-14T12:12:55.371Z,3.33
2017-11-14T12:15:22.641Z,3.80
2017-11-14T12:17:49.924Z,3.00
2017-11-14T12:20:17.190Z,2.60
2017-11-14T12:22:44.480Z,3.43
2017-11-14T12:25:11.773Z,3.67
2017-11-14T12:27:39.041Z,2.87
2017-11-14T12:30:06.428Z,3.70
2017-11-14T12:32:33.693Z,3.67
2017-11-14T12:35:00.960Z,3.90
2017-11-14T12:37:28.254Z,4.30
2017-11-14T12:39:55.593Z,5.17
2017-11-14T12:42:22.825Z,6.23
2017-11-14T12:44:50.084Z,6.60
2017-11-14T12:47:17.395Z,6.20
2017-11-14T12:49:44.665Z,6.10
2017-11-14T12:52:11.927Z,6.33
2017-11-14T12:54:39.217Z,7.00
2017-11-14T12:57:06.487Z,4.97
2017-11-14T12:59:33.783Z,4.50
2017-11-14T13:02:01.044Z,4.30
2017-11-14T13:04:28.305Z,2.97
2017-11-14T13:06:55.601Z,2.50
2017-11-14T13:09:22.868Z,2.40
2017-11-14T13:11:50.159Z,3.00
2017-11-14T13:14:17.422Z,2.37
2017-11-14T13:16:44.708Z,1.87
2017-11-14T13:19:11.988Z,2.07
2017-11-14T13:21:39.256Z,2.47
2017-11-14T13:24:06.554Z,2.57
2017-11-14T13:26:33.811Z,2.13
2017-11-14T13:29:01.068Z,1.90
2017-11-14T13:31:28.356Z,1.90
2017-11-14T13:33:55.617Z,1.93
2017-11-14T13:36:22.912Z,1.27
2017-11-14T13:38:50.167Z,2.10
2017-11-14T13:41:17.424Z,1.80
2017-11-14T13:43:44.708Z,1.60
2017-11-14T13:46:11.973Z,3.37
2017-11-14T13:48:39.268Z,1.53
2017-11-14T13:51:06.532Z,1.40
2017-11-14T13:53:33.788Z,1.80
2017-11-14T13:56:01.094Z,1.90
2017-11-14T13:58:28.352Z,1.50
2017-11-14T14:00:55.612Z,1.50
2017-11-14T14:03:22.892Z,1.80
2017-11-14T14:05:50.180Z,1.77
2017-11-14T14:08:17.489Z,1.60
2017-11-14T14:10:44.776Z,2.00
2017-11-14T14:13:12.033Z,1.93
2017-11-14T14:15:39.289Z,1.90
2017-11-14T14:18:06.592Z,1.30
2017-11-14T14:20:33.857Z,1.93
2017-11-14T14:23:01.116Z,2.10
2017-11-14T14:25:28.403Z,1.73
2017-11-14T14:27:55.704Z,2.20
2017-11-14T14:30:22.963Z,1.70
2017-11-14T14:32:50.220Z,2.00
2017-11-14T14:35:17.505Z,2.20
2017-11-14T14:37:44.785Z,2.20
2017-11-14T14:40:12.052Z,2.07
2017-11-14T14:42:39.349Z,2.40
2017-11-14T14:45:06.599Z,2.00
2017-11-14T14:47:33.874Z,2.40
2017-11-14T14:50:01.161Z,2.70
2017-11-14T14:52:28.415Z,2.77
2017-11-14T14:54:55.689Z,2.00
2017-11-14T14:57:22.967Z,2.30
2017-11-14T14:59:50.236Z,1.90
2017-11-14T15:02:17.507Z,2.30
2017-11-14T15:04:44.800Z,2.00
2017-11-14T15:07:12.068Z,2.37
2017-11-14T15:09:39.363Z,2.40
2017-11-14T15:12:06.652Z,2.33
2017-11-14T15:14:33.913Z,2.03
2017-11-14T15:17:01.178Z,2.30
2017-11-14T15:19:28.459Z,2.30
2017-11-14T15:21:56.607Z,2.67
2017-11-14T15:24:24.064Z,2.20
2017-11-14T15:26:51.320Z,2.40
2017-11-14T15:29:18.613Z,2.40
2017-11-14T15:31:47.474Z,2.50
2017-11-14T15:34:14.858Z,2.20
2017-11-14T15:36:42.165Z,2.60
2017-11-14T15:39:09.455Z,2.00
2017-11-14T15:41:36.738Z,2.40
2017-11-14T15:44:03.988Z,3.57
2017-11-14T15:46:31.276Z,2.47
2017-11-14T15:48:58.666Z,2.37
2017-11-14T15:51:26.833Z,2.50
2017-11-14T15:53:54.100Z,3.10
2017-11-14T15:56:22.944Z,2.70
2017-11-14T15:58:52.207Z,2.70
2017-11-14T16:01:19.466Z,4.17
2017-11-14T16:03:46.723Z,2.90
2017-11-14T16:06:14.028Z,3.40
2017-11-14T16:08:42.136Z,3.00
2017-11-14T16:11:10.115Z,3.00
2017-11-14T16:13:37.511Z,2.73
2017-11-14T16:16:04.784Z,3.30
2017-11-14T16:18:33.427Z,2.70
2017-11-14T16:21:00.799Z,2.33
2017-11-14T16:23:28.228Z,3.47
2017-11-14T16:25:55.491Z,3.03
2017-11-14T16:28:22.783Z,4.07
2017-11-14T16:30:50.044Z,2.50
2017-11-14T16:33:17.337Z,3.17
2017-11-14T16:35:44.601Z,2.73
2017-11-14T16:38:11.897Z,3.23
2017-11-14T16:40:39.180Z,2.90
2017-11-14T16:43:06.538Z,3.33
2017-11-14T16:45:33.804Z,2.83
2017-11-14T16:48:01.074Z,2.60
2017-11-14T16:50:28.523Z,2.10
2017-11-14T16:52:55.781Z,2.27
2017-11-14T16:55:23.069Z,2.70
2017-11-14T16:57:50.352Z,2.40
2017-11-14T17:00:17.615Z,2.40
2017-11-14T17:02:44.909Z,2.67
2017-11-14T17:05:12.180Z,2.50
2017-11-14T17:07:39.584Z,3.00
2017-11-14T17:10:06.883Z,2.43
2017-11-14T17:12:34.156Z,2.70
2017-11-14T17:15:01.417Z,2.27
2017-11-14T17:17:29.511Z,2.60
2017-11-14T17:19:56.931Z,2.70
2017-11-14T17:22:25.028Z,2.63
2017-11-14T17:24:52.705Z,2.90
2017-11-14T17:27:19.971Z,2.97
2017-11-14T17:29:47.628Z,3.03
2017-11-14T17:32:14.988Z,2.57
2017-11-14T18:32:18.483Z,3.40
2017-11-14T18:34:45.781Z,2.90
2017-11-14T18:37:13.049Z,2.50
2017-11-14T18:39:40.360Z,2.37
2017-11-14T18:42:07.620Z,2.40
2017-11-14T18:44:34.879Z,2.67
2017-11-14T18:47:02.184Z,2.87
2017-11-14T18:49:29.598Z,3.07
2017-11-14T18:51:56.936Z,2.90
2017-11-14T18:54:25.080Z,2.83
2017-11-14T18:56:52.351Z,2.83
2017-11-14T18:59:19.635Z,2.53
2017-11-14T19:01:46.907Z,2.80
2017-11-14T19:04:15.068Z,2.63
2017-11-14T19:06:43.856Z,3.00
2017-11-14T19:09:11.120Z,3.43
2017-11-14T19:11:38.667Z,3.50
2017-11-14T19:14:06.145Z,2.47
2017-11-14T19:16:33.411Z,3.50
2017-11-14T19:19:00.693Z,3.00
2017-11-14T19:21:27.975Z,3.50
2017-11-14T19:23:55.259Z,2.57
2017-11-14T19:26:22.502Z,2.93
2017-11-14T19:28:49.783Z,3.30
2017-11-14T19:31:17.081Z,3.03
2017-11-14T19:33:44.330Z,2.80
2017-11-14T19:36:11.621Z,2.33
2017-11-14T19:38:38.879Z,3.03
2017-11-14T19:41:06.191Z,3.70
2017-11-14T19:43:36.867Z,2.77
2017-11-14T19:46:04.112Z,3.23
2017-11-14T19:48:31.407Z,3.03
2017-11-14T19:50:58.678Z,3.80
2017-11-14T19:53:25.934Z,3.00
2017-11-14T19:56:01.970Z,3.20
2017-11-14T19:58:31.348Z,3.47
2017-11-14T20:00:58.653Z,4.33
2017-11-14T20:03:33.684Z,5.00
2017-11-14T20:06:02.343Z,3.63
2017-11-14T20:08:29.652Z,3.40
2017-11-14T20:10:56.911Z,3.40
2017-11-14T20:13:24.178Z,2.97
2017-11-14T20:15:51.929Z,4.30
2017-11-14T20:18:19.195Z,3.50
2017-11-14T20:20:46.462Z,3.70
2017-11-14T20:23:14.311Z,3.67
2017-11-14T20:25:41.638Z,3.50
2017-11-14T20:28:08.912Z,3.23
2017-11-14T20:30:36.176Z,3.50
2017-11-14T20:33:03.475Z,3.40
2017-11-14T20:35:30.736Z,3.30
2017-11-14T20:37:58.125Z,3.30
2017-11-14T20:40:25.444Z,4.40
2017-11-14T20:42:52.691Z,3.30
2017-11-14T20:45:19.970Z,3.27
2017-11-14T20:47:47.228Z,3.30
2017-11-14T20:50:14.507Z,4.27
2017-11-14T20:52:42.697Z,3.53
2017-11-14T20:55:13.183Z,4.10
2017-11-14T20:57:40.449Z,3.83
2017-11-14T21:00:07.914Z,4.00
2017-11-14T21:02:43.091Z,3.07
2017-11-14T21:05:29.352Z,4.07
2017-11-14T21:07:58.608Z,4.30
2017-11-14T21:10:25.887Z,3.83
2017-11-14T21:12:53.149Z,4.13
2017-11-14T21:15:20.425Z,4.60
2017-11-14T21:17:47.708Z,3.93
2017-11-14T21:20:14.969Z,4.93
2017-11-14T21:22:42.255Z,5.33
2017-11-14T21:25:09.524Z,5.70
2017-11-14T21:27:36.807Z,4.97
2017-11-14T21:30:04.185Z,4.93
2017-11-14T21:32:31.584Z,5.10
2017-11-14T21:34:58.841Z,5.53
2017-11-14T21:37:27.593Z,5.37
2017-11-14T21:39:54.856Z,5.93
2017-11-14T21:42:22.136Z,5.47
2017-11-14T21:44:51.603Z,5.43
2017-11-14T21:47:25.406Z,5.67
2017-11-14T21:49:57.372Z,5.00
2017-11-14T21:52:24.899Z,4.70
2017-11-14T21:54:52.373Z,5.23
2017-11-14T21:57:19.631Z,4.90
2017-11-14T21:59:46.916Z,5.47
2017-11-14T22:02:14.182Z,4.67
2017-11-14T22:04:41.582Z,4.90
2017-11-14T22:07:09.392Z,5.30
2017-11-14T22:09:36.672Z,5.57
2017-11-14T22:12:07.379Z,4.40
2017-11-14T22:14:34.665Z,5.07
2017-11-14T22:17:02.761Z,5.10
2017-11-14T22:19:34.367Z,5.80
2017-11-14T22:22:02.984Z,5.10
2017-11-14T22:24:31.247Z,5.60
2017-11-14T22:26:58.509Z,5.53
2017-11-14T22:29:25.772Z,5.07
2017-11-14T22:31:53.055Z,7.50
2017-11-14T22:34:20.324Z,5.70
2017-11-14T22:36:47.760Z,6.00
2017-11-14T22:39:15.029Z,4.83
2017-11-14T22:41:42.306Z,6.40
2017-11-14T22:44:09.571Z,5.67
2017-11-14T22:46:36.853Z,5.63
2017-11-14T22:49:04.119Z,5.20
2017-11-14T22:51:31.686Z,6.23
2017-11-14T22:53:59.356Z,4.80
2017-11-14T22:56:28.205Z,5.90
2017-11-14T22:59:01.226Z,6.70
2017-11-14T23:01:36.361Z,5.23
2017-11-14T23:04:07.648Z,6.40
2017-11-14T23:06:34.937Z,6.70
2017-11-14T23:09:02.796Z,6.63
2017-11-14T23:11:35.120Z,6.03
2017-11-14T23:14:05.170Z,5.93
2017-11-14T23:16:32.651Z,4.93
2017-11-14T23:18:59.916Z,5.53
2017-11-14T23:21:27.353Z,5.20
2017-11-14T23:23:54.609Z,6.60
2017-11-14T23:26:21.873Z,6.77
2017-11-14T23:28:49.265Z,5.47
2017-11-14T23:31:16.524Z,5.70
2017-11-14T23:33:43.809Z,5.83
2017-11-14T23:36:11.068Z,6.00
2017-11-14T23:38:38.346Z,8.10
2017-11-14T23:41:05.621Z,8.13
2017-11-14T23:43:32.905Z,7.67
2017-11-14T23:46:01.339Z,6.53
2017-11-14T23:48:30.244Z,6.10
2017-11-14T23:50:58.204Z,6.50
2017-11-14T23:53:28.961Z,6.80
2017-11-14T23:55:56.237Z,6.53
